sensor_id;sensor_type;location;lat;lon;timestamp;P1;durP1;ratioP1;P2;durP2;ratioP2
21330;SDS011;10824;51.632;4.950;2024-01-30T00:00:21;5.78;;;3.20;;
21330;SDS011;10824;51.632;4.950;2024-01-30T00:02:49;10.63;;;4.60;;
21330;SDS011;10824;51.632;4.950;2024-01-30T00:05:17;7.20;;;3.60;;
21330;SDS011;10824;51.632;4.950;2024-01-30T00:07:47;9.27;;;4.18;;
21330;SDS011;10824;51.632;4.950;2024-01-30T00:10:14;5.25;;;2.72;;
21330;SDS011;10824;51.632;4.950;2024-01-30T00:12:42;5.82;;;2.72;;
21330;SDS011;10824;51.632;4.950;2024-01-30T00:15:11;4.28;;;2.50;;
21330;SDS011;10824;51.632;4.950;2024-01-30T00:17:38;5.95;;;2.90;;
21330;SDS011;10824;51.632;4.950;2024-01-30T00:20:08;12.95;;;2.75;;
21330;SDS011;10824;51.632;4.950;2024-01-30T00:22:36;6.32;;;3.05;;
21330;SDS011;10824;51.632;4.950;2024-01-30T00:25:03;5.35;;;2.83;;
21330;SDS011;10824;51.632;4.950;2024-01-30T00:27:33;2.95;;;1.95;;
21330;SDS011;10824;51.632;4.950;2024-01-30T00:30:01;7.20;;;3.53;;
21330;SDS011;10824;51.632;4.950;2024-01-30T00:32:34;5.47;;;3.40;;
21330;SDS011;10824;51.632;4.950;2024-01-30T00:35:01;5.30;;;3.20;;
21330;SDS011;10824;51.632;4.950;2024-01-30T00:37:30;9.70;;;4.22;;
21330;SDS011;10824;51.632;4.950;2024-01-30T00:39:58;3.80;;;2.40;;
21330;SDS011;10824;51.632;4.950;2024-01-30T00:42:29;7.60;;;3.78;;
21330;SDS011;10824;51.632;4.950;2024-01-30T00:44:56;11.18;;;3.47;;
21330;SDS011;10824;51.632;4.950;2024-01-30T00:47:26;7.25;;;3.67;;
21330;SDS011;10824;51.632;4.950;2024-01-30T00:49:56;3.97;;;2.05;;
21330;SDS011;10824;51.632;4.950;2024-01-30T00:52:23;3.88;;;2.53;;
21330;SDS011;10824;51.632;4.950;2024-01-30T00:54:50;15.15;;;4.35;;
21330;SDS011;10824;51.632;4.950;2024-01-30T00:57:18;9.57;;;3.78;;
21330;SDS011;10824;51.632;4.950;2024-01-30T00:59:46;5.50;;;2.55;;
21330;SDS011;10824;51.632;4.950;2024-01-30T01:02:13;5.18;;;3.58;;
21330;SDS011;10824;51.632;4.950;2024-01-30T01:04:42;7.20;;;3.25;;
21330;SDS011;10824;51.632;4.950;2024-01-30T01:07:11;4.68;;;2.10;;
21330;SDS011;10824;51.632;4.950;2024-01-30T01:09:38;6.72;;;3.25;;
21330;SDS011;10824;51.632;4.950;2024-01-30T01:12:05;8.13;;;3.13;;
21330;SDS011;10824;51.632;4.950;2024-01-30T01:14:34;4.28;;;2.45;;
21330;SDS011;10824;51.632;4.950;2024-01-30T01:17:03;5.40;;;2.72;;
21330;SDS011;10824;51.632;4.950;2024-01-30T01:19:31;6.88;;;3.72;;
21330;SDS011;10824;51.632;4.950;2024-01-30T01:22:02;4.75;;;3.17;;
21330;SDS011;10824;51.632;4.950;2024-01-30T01:24:33;6.80;;;2.85;;
21330;SDS011;10824;51.632;4.950;2024-01-30T01:27:03;6.45;;;2.83;;
21330;SDS011;10824;51.632;4.950;2024-01-30T01:29:32;6.00;;;3.15;;
21330;SDS011;10824;51.632;4.950;2024-01-30T01:32:00;7.95;;;3.10;;
21330;SDS011;10824;51.632;4.950;2024-01-30T01:34:28;4.88;;;2.28;;
21330;SDS011;10824;51.632;4.950;2024-01-30T01:36:56;5.32;;;3.35;;
21330;SDS011;10824;51.632;4.950;2024-01-30T01:39:25;6.00;;;3.45;;
21330;SDS011;10824;51.632;4.950;2024-01-30T01:41:54;4.82;;;2.35;;
21330;SDS011;10824;51.632;4.950;2024-01-30T01:44:24;5.60;;;3.03;;
21330;SDS011;10824;51.632;4.950;2024-01-30T01:46:52;6.68;;;2.42;;
21330;SDS011;10824;51.632;4.950;2024-01-30T01:49:20;4.78;;;3.00;;
21330;SDS011;10824;51.632;4.950;2024-01-30T01:51:49;4.82;;;3.05;;
21330;SDS011;10824;51.632;4.950;2024-01-30T01:54:19;5.78;;;2.80;;
21330;SDS011;10824;51.632;4.950;2024-01-30T01:56:49;2.33;;;2.05;;
21330;SDS011;10824;51.632;4.950;2024-01-30T01:59:18;6.38;;;2.38;;
21330;SDS011;10824;51.632;4.950;2024-01-30T02:01:48;4.15;;;2.47;;
21330;SDS011;10824;51.632;4.950;2024-01-30T02:04:19;6.32;;;2.83;;
21330;SDS011;10824;51.632;4.950;2024-01-30T02:06:48;4.25;;;2.80;;
21330;SDS011;10824;51.632;4.950;2024-01-30T02:09:15;7.72;;;2.90;;
21330;SDS011;10824;51.632;4.950;2024-01-30T02:11:44;4.05;;;2.78;;
21330;SDS011;10824;51.632;4.950;2024-01-30T02:14:12;8.35;;;2.97;;
21330;SDS011;10824;51.632;4.950;2024-01-30T02:16:40;4.10;;;2.75;;
21330;SDS011;10824;51.632;4.950;2024-01-30T02:19:08;6.43;;;3.15;;
21330;SDS011;10824;51.632;4.950;2024-01-30T02:21:36;3.75;;;2.28;;
21330;SDS011;10824;51.632;4.950;2024-01-30T02:24:04;7.32;;;3.10;;
21330;SDS011;10824;51.632;4.950;2024-01-30T02:26:35;6.25;;;2.88;;
21330;SDS011;10824;51.632;4.950;2024-01-30T02:29:03;5.57;;;3.10;;
21330;SDS011;10824;51.632;4.950;2024-01-30T02:31:30;4.68;;;2.58;;
21330;SDS011;10824;51.632;4.950;2024-01-30T02:33:58;5.72;;;2.78;;
21330;SDS011;10824;51.632;4.950;2024-01-30T02:36:26;7.15;;;3.55;;
21330;SDS011;10824;51.632;4.950;2024-01-30T02:38:53;6.13;;;3.03;;
21330;SDS011;10824;51.632;4.950;2024-01-30T02:41:21;3.95;;;2.58;;
21330;SDS011;10824;51.632;4.950;2024-01-30T02:43:49;6.32;;;4.07;;
21330;SDS011;10824;51.632;4.950;2024-01-30T02:46:17;7.80;;;3.13;;
21330;SDS011;10824;51.632;4.950;2024-01-30T02:48:44;4.97;;;3.28;;
21330;SDS011;10824;51.632;4.950;2024-01-30T02:51:15;5.60;;;3.58;;
21330;SDS011;10824;51.632;4.950;2024-01-30T02:53:42;6.80;;;3.17;;
21330;SDS011;10824;51.632;4.950;2024-01-30T02:56:10;5.88;;;2.67;;
21330;SDS011;10824;51.632;4.950;2024-01-30T02:58:40;4.95;;;2.38;;
21330;SDS011;10824;51.632;4.950;2024-01-30T03:01:08;7.88;;;3.42;;
21330;SDS011;10824;51.632;4.950;2024-01-30T03:03:35;5.05;;;2.30;;
21330;SDS011;10824;51.632;4.950;2024-01-30T03:06:03;12.50;;;4.75;;
21330;SDS011;10824;51.632;4.950;2024-01-30T03:08:30;4.07;;;2.33;;
21330;SDS011;10824;51.632;4.950;2024-01-30T03:10:57;6.30;;;3.55;;
21330;SDS011;10824;51.632;4.950;2024-01-30T03:13:31;5.85;;;3.17;;
21330;SDS011;10824;51.632;4.950;2024-01-30T03:15:58;7.28;;;2.40;;
21330;SDS011;10824;51.632;4.950;2024-01-30T03:18:26;5.20;;;2.88;;
21330;SDS011;10824;51.632;4.950;2024-01-30T03:20:54;7.07;;;2.58;;
21330;SDS011;10824;51.632;4.950;2024-01-30T03:23:22;4.38;;;2.38;;
21330;SDS011;10824;51.632;4.950;2024-01-30T03:25:52;4.80;;;2.47;;
21330;SDS011;10824;51.632;4.950;2024-01-30T03:28:19;5.30;;;2.30;;
21330;SDS011;10824;51.632;4.950;2024-01-30T03:30:47;6.25;;;3.10;;
21330;SDS011;10824;51.632;4.950;2024-01-30T03:33:15;6.30;;;3.03;;
21330;SDS011;10824;51.632;4.950;2024-01-30T03:35:43;7.60;;;3.55;;
21330;SDS011;10824;51.632;4.950;2024-01-30T03:38:15;3.70;;;2.13;;
21330;SDS011;10824;51.632;4.950;2024-01-30T03:40:43;5.18;;;3.00;;
21330;SDS011;10824;51.632;4.950;2024-01-30T03:43:11;3.47;;;2.50;;
21330;SDS011;10824;51.632;4.950;2024-01-30T03:45:39;5.07;;;3.17;;
21330;SDS011;10824;51.632;4.950;2024-01-30T03:48:09;5.10;;;2.97;;
21330;SDS011;10824;51.632;4.950;2024-01-30T03:50:36;4.20;;;2.28;;
21330;SDS011;10824;51.632;4.950;2024-01-30T03:53:06;7.55;;;2.92;;
21330;SDS011;10824;51.632;4.950;2024-01-30T03:55:36;5.78;;;3.17;;
21330;SDS011;10824;51.632;4.950;2024-01-30T03:58:05;8.32;;;3.38;;
21330;SDS011;10824;51.632;4.950;2024-01-30T04:00:33;5.30;;;3.03;;
21330;SDS011;10824;51.632;4.950;2024-01-30T04:03:00;6.30;;;3.15;;
21330;SDS011;10824;51.632;4.950;2024-01-30T04:05:27;6.95;;;2.88;;
21330;SDS011;10824;51.632;4.950;2024-01-30T04:07:56;6.97;;;3.38;;
21330;SDS011;10824;51.632;4.950;2024-01-30T04:10:23;6.65;;;3.33;;
21330;SDS011;10824;51.632;4.950;2024-01-30T04:12:54;6.55;;;3.22;;
21330;SDS011;10824;51.632;4.950;2024-01-30T04:15:21;4.20;;;2.80;;
21330;SDS011;10824;51.632;4.950;2024-01-30T04:17:50;5.60;;;1.83;;
21330;SDS011;10824;51.632;4.950;2024-01-30T04:20:17;4.20;;;2.65;;
21330;SDS011;10824;51.632;4.950;2024-01-30T04:22:44;6.43;;;3.15;;
21330;SDS011;10824;51.632;4.950;2024-01-30T04:25:13;4.20;;;2.50;;
21330;SDS011;10824;51.632;4.950;2024-01-30T04:27:40;3.83;;;2.60;;
21330;SDS011;10824;51.632;4.950;2024-01-30T04:30:08;4.75;;;2.28;;
21330;SDS011;10824;51.632;4.950;2024-01-30T04:32:35;4.50;;;2.53;;
21330;SDS011;10824;51.632;4.950;2024-01-30T04:35:03;2.55;;;2.22;;
21330;SDS011;10824;51.632;4.950;2024-01-30T04:37:36;9.88;;;2.90;;
21330;SDS011;10824;51.632;4.950;2024-01-30T04:40:05;4.95;;;2.75;;
21330;SDS011;10824;51.632;4.950;2024-01-30T04:42:33;4.00;;;2.83;;
21330;SDS011;10824;51.632;4.950;2024-01-30T04:45:00;4.22;;;2.22;;
21330;SDS011;10824;51.632;4.950;2024-01-30T04:47:28;5.85;;;2.55;;
21330;SDS011;10824;51.632;4.950;2024-01-30T04:49:56;5.78;;;2.50;;
21330;SDS011;10824;51.632;4.950;2024-01-30T04:52:23;5.28;;;2.70;;
21330;SDS011;10824;51.632;4.950;2024-01-30T04:54:51;4.47;;;2.42;;
21330;SDS011;10824;51.632;4.950;2024-01-30T04:57:18;4.72;;;2.20;;
21330;SDS011;10824;51.632;4.950;2024-01-30T04:59:45;5.18;;;2.65;;
21330;SDS011;10824;51.632;4.950;2024-01-30T05:02:13;5.15;;;2.22;;
21330;SDS011;10824;51.632;4.950;2024-01-30T05:04:42;5.82;;;2.72;;
21330;SDS011;10824;51.632;4.950;2024-01-30T05:07:12;4.95;;;3.92;;
21330;SDS011;10824;51.632;4.950;2024-01-30T05:09:40;4.43;;;3.08;;
21330;SDS011;10824;51.632;4.950;2024-01-30T05:12:07;4.22;;;2.03;;
21330;SDS011;10824;51.632;4.950;2024-01-30T05:14:35;4.35;;;2.78;;
21330;SDS011;10824;51.632;4.950;2024-01-30T05:17:10;6.07;;;3.20;;
21330;SDS011;10824;51.632;4.950;2024-01-30T05:19:40;4.97;;;2.90;;
21330;SDS011;10824;51.632;4.950;2024-01-30T05:22:13;5.82;;;2.50;;
21330;SDS011;10824;51.632;4.950;2024-01-30T05:24:42;6.43;;;3.00;;
21330;SDS011;10824;51.632;4.950;2024-01-30T05:27:11;4.70;;;3.13;;
21330;SDS011;10824;51.632;4.950;2024-01-30T05:29:40;7.57;;;2.97;;
21330;SDS011;10824;51.632;4.950;2024-01-30T05:32:09;5.50;;;2.03;;
21330;SDS011;10824;51.632;4.950;2024-01-30T05:34:38;4.20;;;2.00;;
21330;SDS011;10824;51.632;4.950;2024-01-30T05:37:05;4.05;;;2.17;;
21330;SDS011;10824;51.632;4.950;2024-01-30T05:39:32;4.00;;;2.58;;
21330;SDS011;10824;51.632;4.950;2024-01-30T05:41:59;9.65;;;2.70;;
21330;SDS011;10824;51.632;4.950;2024-01-30T05:44:28;3.78;;;2.25;;
21330;SDS011;10824;51.632;4.950;2024-01-30T05:46:55;6.95;;;2.88;;
21330;SDS011;10824;51.632;4.950;2024-01-30T05:49:22;7.05;;;2.22;;
21330;SDS011;10824;51.632;4.950;2024-01-30T05:51:50;3.63;;;2.38;;
21330;SDS011;10824;51.632;4.950;2024-01-30T05:54:17;7.07;;;2.35;;
21330;SDS011;10824;51.632;4.950;2024-01-30T05:56:45;4.88;;;2.88;;
21330;SDS011;10824;51.632;4.950;2024-01-30T05:59:12;5.93;;;2.17;;
21330;SDS011;10824;51.632;4.950;2024-01-30T06:01:48;6.57;;;2.25;;
21330;SDS011;10824;51.632;4.950;2024-01-30T06:04:17;5.60;;;2.47;;
21330;SDS011;10824;51.632;4.950;2024-01-30T06:06:45;7.95;;;2.42;;
21330;SDS011;10824;51.632;4.950;2024-01-30T06:09:13;6.20;;;2.28;;
21330;SDS011;10824;51.632;4.950;2024-01-30T06:11:41;5.97;;;3.58;;
21330;SDS011;10824;51.632;4.950;2024-01-30T06:14:09;8.32;;;2.65;;
21330;SDS011;10824;51.632;4.950;2024-01-30T06:16:37;3.95;;;1.95;;
21330;SDS011;10824;51.632;4.950;2024-01-30T06:19:05;7.13;;;2.92;;
21330;SDS011;10824;51.632;4.950;2024-01-30T06:21:33;3.13;;;2.15;;
21330;SDS011;10824;51.632;4.950;2024-01-30T06:24:03;3.85;;;2.20;;
21330;SDS011;10824;51.632;4.950;2024-01-30T06:26:31;3.40;;;2.25;;
21330;SDS011;10824;51.632;4.950;2024-01-30T06:28:58;5.50;;;2.40;;
21330;SDS011;10824;51.632;4.950;2024-01-30T06:31:26;4.28;;;2.97;;
21330;SDS011;10824;51.632;4.950;2024-01-30T06:33:53;9.90;;;3.38;;
21330;SDS011;10824;51.632;4.950;2024-01-30T06:36:20;6.47;;;3.63;;
21330;SDS011;10824;51.632;4.950;2024-01-30T06:38:48;3.85;;;2.45;;
21330;SDS011;10824;51.632;4.950;2024-01-30T06:41:15;5.18;;;3.20;;
21330;SDS011;10824;51.632;4.950;2024-01-30T06:43:42;4.72;;;3.05;;
21330;SDS011;10824;51.632;4.950;2024-01-30T06:46:11;4.03;;;2.50;;
21330;SDS011;10824;51.632;4.950;2024-01-30T06:48:39;10.40;;;2.90;;
21330;SDS011;10824;51.632;4.950;2024-01-30T06:51:11;6.10;;;2.55;;
21330;SDS011;10824;51.632;4.950;2024-01-30T06:56:10;4.35;;;2.38;;
21330;SDS011;10824;51.632;4.950;2024-01-30T06:58:37;10.10;;;2.70;;
21330;SDS011;10824;51.632;4.950;2024-01-30T07:01:06;2.92;;;2.08;;
21330;SDS011;10824;51.632;4.950;2024-01-30T07:03:33;4.22;;;2.55;;
21330;SDS011;10824;51.632;4.950;2024-01-30T07:06:01;6.07;;;2.67;;
21330;SDS011;10824;51.632;4.950;2024-01-30T07:08:28;7.00;;;2.40;;
21330;SDS011;10824;51.632;4.950;2024-01-30T07:10:55;6.03;;;2.90;;
21330;SDS011;10824;51.632;4.950;2024-01-30T07:13:27;4.78;;;2.58;;
21330;SDS011;10824;51.632;4.950;2024-01-30T07:15:58;6.70;;;2.88;;
21330;SDS011;10824;51.632;4.950;2024-01-30T07:18:26;5.88;;;2.20;;
21330;SDS011;10824;51.632;4.950;2024-01-30T07:20:53;10.63;;;3.40;;
21330;SDS011;10824;51.632;4.950;2024-01-30T07:23:21;3.88;;;3.03;;
21330;SDS011;10824;51.632;4.950;2024-01-30T07:25:50;4.93;;;2.60;;
21330;SDS011;10824;51.632;4.950;2024-01-30T07:28:17;7.32;;;3.65;;
21330;SDS011;10824;51.632;4.950;2024-01-30T07:30:48;6.28;;;2.45;;
21330;SDS011;10824;51.632;4.950;2024-01-30T07:33:17;6.28;;;2.72;;
21330;SDS011;10824;51.632;4.950;2024-01-30T07:35:45;9.15;;;2.40;;
21330;SDS011;10824;51.632;4.950;2024-01-30T07:38:13;5.38;;;2.67;;
21330;SDS011;10824;51.632;4.950;2024-01-30T07:40:42;9.35;;;4.57;;
21330;SDS011;10824;51.632;4.950;2024-01-30T07:43:10;5.75;;;2.70;;
21330;SDS011;10824;51.632;4.950;2024-01-30T07:45:39;8.82;;;2.63;;
21330;SDS011;10824;51.632;4.950;2024-01-30T07:48:06;5.30;;;3.15;;
21330;SDS011;10824;51.632;4.950;2024-01-30T07:50:33;7.45;;;2.80;;
21330;SDS011;10824;51.632;4.950;2024-01-30T07:53:03;5.55;;;2.97;;
21330;SDS011;10824;51.632;4.950;2024-01-30T07:55:30;3.45;;;2.08;;
21330;SDS011;10824;51.632;4.950;2024-01-30T07:57:59;5.65;;;2.67;;
21330;SDS011;10824;51.632;4.950;2024-01-30T08:00:28;9.40;;;3.70;;
21330;SDS011;10824;51.632;4.950;2024-01-30T08:02:57;7.30;;;2.65;;
21330;SDS011;10824;51.632;4.950;2024-01-30T08:05:25;9.18;;;3.35;;
21330;SDS011;10824;51.632;4.950;2024-01-30T08:07:53;6.32;;;3.20;;
21330;SDS011;10824;51.632;4.950;2024-01-30T08:10:21;4.15;;;2.70;;
21330;SDS011;10824;51.632;4.950;2024-01-30T08:12:48;6.95;;;3.58;;
21330;SDS011;10824;51.632;4.950;2024-01-30T08:15:15;5.57;;;2.60;;
21330;SDS011;10824;51.632;4.950;2024-01-30T08:17:44;12.30;;;3.25;;
21330;SDS011;10824;51.632;4.950;2024-01-30T08:20:11;4.60;;;2.08;;
21330;SDS011;10824;51.632;4.950;2024-01-30T08:22:40;12.18;;;2.92;;
21330;SDS011;10824;51.632;4.950;2024-01-30T08:25:10;7.80;;;3.00;;
21330;SDS011;10824;51.632;4.950;2024-01-30T08:27:38;6.22;;;2.80;;
21330;SDS011;10824;51.632;4.950;2024-01-30T08:30:07;9.60;;;3.25;;
21330;SDS011;10824;51.632;4.950;2024-01-30T08:32:34;4.25;;;2.95;;
21330;SDS011;10824;51.632;4.950;2024-01-30T08:35:02;6.43;;;3.33;;
21330;SDS011;10824;51.632;4.950;2024-01-30T08:37:30;7.00;;;3.10;;
21330;SDS011;10824;51.632;4.950;2024-01-30T08:39:58;5.07;;;3.08;;
21330;SDS011;10824;51.632;4.950;2024-01-30T08:42:26;9.35;;;2.60;;
21330;SDS011;10824;51.632;4.950;2024-01-30T08:44:54;6.97;;;2.92;;
21330;SDS011;10824;51.632;4.950;2024-01-30T08:47:25;4.68;;;2.83;;
21330;SDS011;10824;51.632;4.950;2024-01-30T08:49:53;5.93;;;3.10;;
21330;SDS011;10824;51.632;4.950;2024-01-30T08:52:20;8.32;;;3.63;;
21330;SDS011;10824;51.632;4.950;2024-01-30T08:54:47;8.40;;;3.42;;
21330;SDS011;10824;51.632;4.950;2024-01-30T08:57:14;8.20;;;4.30;;
21330;SDS011;10824;51.632;4.950;2024-01-30T08:59:42;6.88;;;2.95;;
21330;SDS011;10824;51.632;4.950;2024-01-30T09:02:13;4.03;;;2.53;;
21330;SDS011;10824;51.632;4.950;2024-01-30T09:04:43;6.47;;;2.72;;
21330;SDS011;10824;51.632;4.950;2024-01-30T09:07:12;4.72;;;2.90;;
21330;SDS011;10824;51.632;4.950;2024-01-30T09:09:41;5.93;;;2.47;;
21330;SDS011;10824;51.632;4.950;2024-01-30T09:12:08;6.50;;;2.70;;
21330;SDS011;10824;51.632;4.950;2024-01-30T09:14:39;13.60;;;5.18;;
21330;SDS011;10824;51.632;4.950;2024-01-30T09:17:08;8.93;;;4.05;;
21330;SDS011;10824;51.632;4.950;2024-01-30T09:19:35;5.55;;;3.38;;
21330;SDS011;10824;51.632;4.950;2024-01-30T09:22:03;6.00;;;2.50;;
21330;SDS011;10824;51.632;4.950;2024-01-30T09:24:31;6.13;;;2.40;;
21330;SDS011;10824;51.632;4.950;2024-01-30T09:26:58;5.53;;;2.70;;
21330;SDS011;10824;51.632;4.950;2024-01-30T09:29:25;6.32;;;2.63;;
21330;SDS011;10824;51.632;4.950;2024-01-30T09:31:53;4.72;;;2.17;;
21330;SDS011;10824;51.632;4.950;2024-01-30T09:34:21;7.75;;;2.65;;
21330;SDS011;10824;51.632;4.950;2024-01-30T09:36:51;6.05;;;2.70;;
21330;SDS011;10824;51.632;4.950;2024-01-30T09:39:18;7.28;;;2.90;;
21330;SDS011;10824;51.632;4.950;2024-01-30T09:42:11;6.68;;;3.28;;
21330;SDS011;10824;51.632;4.950;2024-01-30T09:44:53;5.65;;;2.47;;
21330;SDS011;10824;51.632;4.950;2024-01-30T09:47:23;4.60;;;2.60;;
21330;SDS011;10824;51.632;4.950;2024-01-30T09:49:51;6.68;;;3.47;;
21330;SDS011;10824;51.632;4.950;2024-01-30T09:52:19;7.80;;;3.58;;
21330;SDS011;10824;51.632;4.950;2024-01-30T09:54:47;7.97;;;3.03;;
21330;SDS011;10824;51.632;4.950;2024-01-30T09:57:18;4.22;;;2.60;;
21330;SDS011;10824;51.632;4.950;2024-01-30T09:59:47;5.43;;;3.67;;
21330;SDS011;10824;51.632;4.950;2024-01-30T10:02:15;12.70;;;3.63;;
21330;SDS011;10824;51.632;4.950;2024-01-30T10:04:49;9.02;;;3.72;;
21330;SDS011;10824;51.632;4.950;2024-01-30T10:07:17;10.23;;;3.95;;
21330;SDS011;10824;51.632;4.950;2024-01-30T10:09:46;7.95;;;3.42;;
21330;SDS011;10824;51.632;4.950;2024-01-30T10:12:15;6.60;;;3.08;;
21330;SDS011;10824;51.632;4.950;2024-01-30T10:14:43;7.38;;;3.53;;
21330;SDS011;10824;51.632;4.950;2024-01-30T10:17:11;6.40;;;3.30;;
21330;SDS011;10824;51.632;4.950;2024-01-30T10:19:53;5.03;;;3.08;;
21330;SDS011;10824;51.632;4.950;2024-01-30T10:22:22;7.95;;;2.50;;
21330;SDS011;10824;51.632;4.950;2024-01-30T10:24:51;4.78;;;3.13;;
21330;SDS011;10824;51.632;4.950;2024-01-30T10:27:30;9.23;;;3.85;;
21330;SDS011;10824;51.632;4.950;2024-01-30T10:30:00;6.25;;;2.97;;
21330;SDS011;10824;51.632;4.950;2024-01-30T10:32:28;5.72;;;2.70;;
21330;SDS011;10824;51.632;4.950;2024-01-30T10:34:56;8.98;;;2.92;;
21330;SDS011;10824;51.632;4.950;2024-01-30T10:37:25;6.38;;;3.33;;
21330;SDS011;10824;51.632;4.950;2024-01-30T10:39:53;12.07;;;4.20;;
21330;SDS011;10824;51.632;4.950;2024-01-30T10:42:25;6.78;;;2.53;;
21330;SDS011;10824;51.632;4.950;2024-01-30T10:45:00;9.57;;;2.97;;
21330;SDS011;10824;51.632;4.950;2024-01-30T10:47:48;7.50;;;2.63;;
21330;SDS011;10824;51.632;4.950;2024-01-30T10:50:17;6.55;;;3.45;;
21330;SDS011;10824;51.632;4.950;2024-01-30T10:52:45;5.88;;;2.58;;
21330;SDS011;10824;51.632;4.950;2024-01-30T10:55:22;9.90;;;3.72;;
21330;SDS011;10824;51.632;4.950;2024-01-30T10:57:50;6.20;;;2.47;;
21330;SDS011;10824;51.632;4.950;2024-01-30T11:00:18;5.53;;;3.00;;
21330;SDS011;10824;51.632;4.950;2024-01-30T11:02:50;7.53;;;2.47;;
21330;SDS011;10824;51.632;4.950;2024-01-30T11:05:24;6.47;;;2.25;;
21330;SDS011;10824;51.632;4.950;2024-01-30T11:07:59;12.13;;;2.97;;
21330;SDS011;10824;51.632;4.950;2024-01-30T11:10:45;2.22;;;1.63;;
21330;SDS011;10824;51.632;4.950;2024-01-30T11:13:13;7.43;;;2.33;;
21330;SDS011;10824;51.632;4.950;2024-01-30T11:15:42;4.93;;;1.23;;
21330;SDS011;10824;51.632;4.950;2024-01-30T11:18:10;2.72;;;1.25;;
21330;SDS011;10824;51.632;4.950;2024-01-30T11:20:38;2.00;;;1.38;;
21330;SDS011;10824;51.632;4.950;2024-01-30T11:23:13;3.33;;;0.90;;
21330;SDS011;10824;51.632;4.950;2024-01-30T11:25:43;3.72;;;1.10;;
21330;SDS011;10824;51.632;4.950;2024-01-30T11:28:15;3.08;;;1.67;;
21330;SDS011;10824;51.632;4.950;2024-01-30T11:30:43;2.10;;;0.77;;
21330;SDS011;10824;51.632;4.950;2024-01-30T11:33:12;1.05;;;0.75;;
21330;SDS011;10824;51.632;4.950;2024-01-30T11:35:43;1.35;;;1.00;;
21330;SDS011;10824;51.632;4.950;2024-01-30T11:38:13;4.50;;;0.70;;
21330;SDS011;10824;51.632;4.950;2024-01-30T11:40:41;8.82;;;1.95;;
21330;SDS011;10824;51.632;4.950;2024-01-30T11:43:11;1.65;;;0.70;;
21330;SDS011;10824;51.632;4.950;2024-01-30T11:45:39;1.42;;;0.70;;
21330;SDS011;10824;51.632;4.950;2024-01-30T11:48:07;1.33;;;0.82;;
21330;SDS011;10824;51.632;4.950;2024-01-30T11:50:39;2.92;;;0.60;;
21330;SDS011;10824;51.632;4.950;2024-01-30T11:53:08;1.27;;;0.80;;
21330;SDS011;10824;51.632;4.950;2024-01-30T11:55:36;2.58;;;0.80;;
21330;SDS011;10824;51.632;4.950;2024-01-30T11:58:05;0.75;;;0.50;;
21330;SDS011;10824;51.632;4.950;2024-01-30T12:00:32;1.05;;;0.55;;
21330;SDS011;10824;51.632;4.950;2024-01-30T12:03:01;0.88;;;0.60;;
21330;SDS011;10824;51.632;4.950;2024-01-30T12:05:30;0.70;;;0.70;;
21330;SDS011;10824;51.632;4.950;2024-01-30T12:07:58;0.75;;;0.50;;
21330;SDS011;10824;51.632;4.950;2024-01-30T12:10:29;0.47;;;0.40;;
21330;SDS011;10824;51.632;4.950;2024-01-30T12:12:57;0.82;;;0.50;;
21330;SDS011;10824;51.632;4.950;2024-01-30T12:15:28;1.63;;;1.23;;
21330;SDS011;10824;51.632;4.950;2024-01-30T12:18:05;3.20;;;0.43;;
21330;SDS011;10824;51.632;4.950;2024-01-30T12:20:34;0.50;;;0.40;;
21330;SDS011;10824;51.632;4.950;2024-01-30T12:23:01;2.15;;;0.50;;
21330;SDS011;10824;51.632;4.950;2024-01-30T12:25:29;0.63;;;0.30;;
21330;SDS011;10824;51.632;4.950;2024-01-30T12:27:58;0.73;;;0.70;;
21330;SDS011;10824;51.632;4.950;2024-01-30T12:30:27;0.43;;;0.35;;
21330;SDS011;10824;51.632;4.950;2024-01-30T12:32:55;1.60;;;0.60;;
21330;SDS011;10824;51.632;4.950;2024-01-30T12:35:25;0.70;;;0.52;;
21330;SDS011;10824;51.632;4.950;2024-01-30T12:37:58;0.50;;;0.40;;
21330;SDS011;10824;51.632;4.950;2024-01-30T12:40:25;0.40;;;0.40;;
21330;SDS011;10824;51.632;4.950;2024-01-30T12:42:54;1.05;;;0.95;;
21330;SDS011;10824;51.632;4.950;2024-01-30T12:45:21;1.38;;;0.50;;
21330;SDS011;10824;51.632;4.950;2024-01-30T12:47:49;1.35;;;0.60;;
21330;SDS011;10824;51.632;4.950;2024-01-30T12:50:17;2.13;;;0.35;;
21330;SDS011;10824;51.632;4.950;2024-01-30T12:52:45;0.30;;;0.30;;
21330;SDS011;10824;51.632;4.950;2024-01-30T12:55:15;0.38;;;0.30;;
21330;SDS011;10824;51.632;4.950;2024-01-30T12:57:44;4.30;;;2.25;;
21330;SDS011;10824;51.632;4.950;2024-01-30T13:00:12;0.95;;;0.43;;
21330;SDS011;10824;51.632;4.950;2024-01-30T13:02:40;1.17;;;0.50;;
21330;SDS011;10824;51.632;4.950;2024-01-30T13:05:09;2.05;;;0.80;;
21330;SDS011;10824;51.632;4.950;2024-01-30T13:07:37;2.00;;;1.15;;
21330;SDS011;10824;51.632;4.950;2024-01-30T13:10:07;4.75;;;2.30;;
21330;SDS011;10824;51.632;4.950;2024-01-30T13:12:35;1.15;;;0.98;;
21330;SDS011;10824;51.632;4.950;2024-01-30T13:15:03;6.20;;;1.30;;
21330;SDS011;10824;51.632;4.950;2024-01-30T13:17:33;5.55;;;1.40;;
21330;SDS011;10824;51.632;4.950;2024-01-30T13:20:00;3.92;;;1.42;;
21330;SDS011;10824;51.632;4.950;2024-01-30T13:22:36;4.10;;;1.20;;
21330;SDS011;10824;51.632;4.950;2024-01-30T13:25:09;4.68;;;1.52;;
21330;SDS011;10824;51.632;4.950;2024-01-30T13:27:36;10.27;;;1.40;;
21330;SDS011;10824;51.632;4.950;2024-01-30T13:30:06;5.20;;;1.23;;
21330;SDS011;10824;51.632;4.950;2024-01-30T13:32:36;1.90;;;1.27;;
21330;SDS011;10824;51.632;4.950;2024-01-30T13:35:04;1.83;;;1.13;;
21330;SDS011;10824;51.632;4.950;2024-01-30T13:37:31;3.45;;;1.50;;
21330;SDS011;10824;51.632;4.950;2024-01-30T13:39:59;5.25;;;1.50;;
21330;SDS011;10824;51.632;4.950;2024-01-30T13:42:31;3.15;;;1.98;;
21330;SDS011;10824;51.632;4.950;2024-01-30T13:44:59;3.47;;;1.48;;
21330;SDS011;10824;51.632;4.950;2024-01-30T13:47:27;2.47;;;1.42;;
21330;SDS011;10824;51.632;4.950;2024-01-30T13:49:54;3.10;;;1.40;;
21330;SDS011;10824;51.632;4.950;2024-01-30T13:52:22;3.67;;;1.50;;
21330;SDS011;10824;51.632;4.950;2024-01-30T13:54:57;2.42;;;1.52;;
21330;SDS011;10824;51.632;4.950;2024-01-30T13:57:25;2.05;;;1.40;;
21330;SDS011;10824;51.632;4.950;2024-01-30T13:59:52;6.70;;;1.48;;
21330;SDS011;10824;51.632;4.950;2024-01-30T14:02:19;3.38;;;1.23;;
21330;SDS011;10824;51.632;4.950;2024-01-30T14:04:48;2.08;;;1.30;;
21330;SDS011;10824;51.632;4.950;2024-01-30T14:07:16;4.63;;;1.45;;
21330;SDS011;10824;51.632;4.950;2024-01-30T14:09:45;5.30;;;1.33;;
21330;SDS011;10824;51.632;4.950;2024-01-30T14:12:14;4.38;;;1.20;;
21330;SDS011;10824;51.632;4.950;2024-01-30T14:14:41;1.05;;;0.85;;
21330;SDS011;10824;51.632;4.950;2024-01-30T14:17:08;2.70;;;1.10;;
21330;SDS011;10824;51.632;4.950;2024-01-30T14:19:36;1.10;;;1.00;;
21330;SDS011;10824;51.632;4.950;2024-01-30T14:22:03;2.78;;;0.98;;
21330;SDS011;10824;51.632;4.950;2024-01-30T14:24:30;1.48;;;0.90;;
21330;SDS011;10824;51.632;4.950;2024-01-30T14:26:58;4.78;;;2.58;;
21330;SDS011;10824;51.632;4.950;2024-01-30T14:29:26;3.70;;;1.85;;
21330;SDS011;10824;51.632;4.950;2024-01-30T14:31:55;1.58;;;0.90;;
21330;SDS011;10824;51.632;4.950;2024-01-30T14:34:23;3.60;;;1.08;;
21330;SDS011;10824;51.632;4.950;2024-01-30T14:36:50;1.27;;;1.13;;
21330;SDS011;10824;51.632;4.950;2024-01-30T14:39:19;3.85;;;1.02;;
21330;SDS011;10824;51.632;4.950;2024-01-30T14:41:47;1.10;;;0.80;;
21330;SDS011;10824;51.632;4.950;2024-01-30T14:44:14;3.80;;;0.85;;
21330;SDS011;10824;51.632;4.950;2024-01-30T14:46:42;1.80;;;0.90;;
21330;SDS011;10824;51.632;4.950;2024-01-30T14:49:10;3.47;;;1.02;;
21330;SDS011;10824;51.632;4.950;2024-01-30T14:51:41;1.75;;;1.10;;
21330;SDS011;10824;51.632;4.950;2024-01-30T14:54:09;1.43;;;1.07;;
21330;SDS011;10824;51.632;4.950;2024-01-30T14:56:37;2.42;;;1.48;;
21330;SDS011;10824;51.632;4.950;2024-01-30T14:59:08;3.05;;;1.08;;